createdAt,value
2018-12-18T00:00:51.203Z,5.5
2018-12-18T00:01:51.176Z,5.5
2018-12-18T00:02:51.333Z,5.51
2018-12-18T00:03:51.220Z,5.52
2018-12-18T00:04:51.168Z,5.51
2018-12-18T00:05:51.253Z,5.5
2018-12-18T00:06:51.244Z,5.51
2018-12-18T00:07:51.247Z,5.51
2018-12-18T00:08:51.172Z,5.51
2018-12-18T00:09:51.261Z,5.51
2018-12-18T00:10:51.172Z,5.49
2018-12-18T00:11:51.402Z,5.5
2018-12-18T00:12:51.192Z,5.49
2018-12-18T00:13:51.251Z,5.51
2018-12-18T00:14:51.404Z,5.51
2018-12-18T00:15:51.617Z,5.48
2018-12-18T00:16:51.452Z,5.48
2018-12-18T00:17:51.600Z,5.5
2018-12-18T00:18:51.178Z,5.48
2018-12-18T00:19:51.462Z,5.49
2018-12-18T00:20:51.265Z,5.5
2018-12-18T00:21:51.314Z,5.5
2018-12-18T00:22:51.222Z,5.5
2018-12-18T00:23:51.380Z,5.47
2018-12-18T00:24:51.541Z,5.52
2018-12-18T00:25:51.142Z,5.47
2018-12-18T00:26:51.317Z,5.49
2018-12-18T00:27:51.303Z,5.48
2018-12-18T00:28:51.146Z,5.48
2018-12-18T00:29:51.507Z,5.47
2018-12-18T00:30:51.300Z,5.5
2018-12-18T00:31:51.338Z,5.46
2018-12-18T00:32:51.114Z,5.48
2018-12-18T00:33:51.231Z,5.46
2018-12-18T00:34:51.331Z,5.45
2018-12-18T00:35:51.217Z,5.46
2018-12-18T00:36:51.966Z,5.47
2018-12-18T00:37:51.423Z,5.5
2018-12-18T00:38:51.258Z,5.51
2018-12-18T00:39:51.942Z,5.51
2018-12-18T00:40:51.473Z,5.51
2018-12-18T00:41:51.276Z,5.51
2018-12-18T00:42:51.356Z,5.5
2018-12-18T00:43:51.465Z,5.5
2018-12-18T00:44:51.481Z,5.5
2018-12-18T00:45:51.469Z,5.49
2018-12-18T00:46:51.377Z,5.46
2018-12-18T00:47:51.551Z,5.47
2018-12-18T00:48:51.287Z,5.47
2018-12-18T00:49:51.197Z,5.46
2018-12-18T00:50:51.292Z,5.45
2018-12-18T00:51:51.299Z,5.46
2018-12-18T00:52:51.430Z,5.45
2018-12-18T00:53:51.171Z,5.47
2018-12-18T00:54:51.155Z,5.44
2018-12-18T00:55:51.078Z,5.43
2018-12-18T00:56:51.147Z,5.42
2018-12-18T00:57:51.301Z,5.41
2018-12-18T00:58:51.157Z,5.41
2018-12-18T00:59:51.355Z,5.39
2018-12-18T01:00:51.073Z,5.38
2018-12-18T01:01:51.231Z,5.37
2018-12-18T01:02:51.139Z,5.37
2018-12-18T01:03:53.351Z,5.36
2018-12-18T01:04:51.169Z,5.35
2018-12-18T01:05:51.240Z,5.35
2018-12-18T01:06:51.469Z,5.35
2018-12-18T01:07:53.885Z,5.34
2018-12-18T01:08:51.159Z,5.32
2018-12-18T01:09:51.251Z,5.33
2018-12-18T01:10:51.191Z,5.31
2018-12-18T01:11:51.201Z,5.34
2018-12-18T01:12:51.818Z,5.32
2018-12-18T01:13:51.228Z,5.32
2018-12-18T01:14:51.088Z,5.31
2018-12-18T01:15:51.199Z,5.31
2018-12-18T01:16:51.274Z,5.3
2018-12-18T01:17:51.943Z,5.29
2018-12-18T01:18:51.662Z,5.3
2018-12-18T01:19:51.152Z,5.29
2018-12-18T01:20:51.192Z,5.27
2018-12-18T01:21:51.154Z,5.28
2018-12-18T01:22:51.126Z,5.26
2018-12-18T01:23:51.072Z,5.24
2018-12-18T01:24:51.245Z,5.24
2018-12-18T01:25:51.131Z,5.24
2018-12-18T01:26:51.169Z,5.23
2018-12-18T01:27:51.143Z,5.23
2018-12-18T01:28:51.167Z,5.22
2018-12-18T01:29:51.140Z,5.2
2018-12-18T01:30:51.123Z,5.21
2018-12-18T01:31:51.147Z,5.21
2018-12-18T01:32:51.203Z,5.18
2018-12-18T01:33:51.169Z,5.17
2018-12-18T01:34:51.125Z,5.17
2018-12-18T01:35:51.004Z,5.13
2018-12-18T01:36:51.149Z,5.12
2018-12-18T01:37:51.199Z,5.12
2018-12-18T01:38:51.161Z,5.12
2018-12-18T01:39:51.137Z,5.11
2018-12-18T01:40:51.142Z,5.11
2018-12-18T01:41:50.995Z,5.1
2018-12-18T01:42:51.072Z,5.09
2018-12-18T01:43:51.200Z,5.08
2018-12-18T01:44:51.029Z,5.05
2018-12-18T01:45:51.210Z,5.05
2018-12-18T01:46:51.099Z,5.03
2018-12-18T01:47:51.031Z,5.01
2018-12-18T01:48:51.301Z,5.01
2018-12-18T01:49:51.163Z,4.99
2018-12-18T01:50:51.265Z,4.99
2018-12-18T01:51:51.208Z,4.98
2018-12-18T01:52:51.073Z,4.97
2018-12-18T01:53:51.149Z,4.93
2018-12-18T01:54:51.251Z,4.91
2018-12-18T01:55:51.333Z,4.87
2018-12-18T01:56:50.979Z,4.84
2018-12-18T01:57:51.147Z,4.81
2018-12-18T01:58:50.995Z,4.77
2018-12-18T01:59:51.074Z,4.76
2018-12-18T02:00:51.205Z,4.75
2018-12-18T02:01:50.985Z,4.71
2018-12-18T02:02:51.854Z,4.72
2018-12-18T02:03:51.033Z,4.7
2018-12-18T02:04:51.260Z,4.69
2018-12-18T02:05:51.268Z,4.68
2018-12-18T02:06:50.957Z,4.69
2018-12-18T02:07:51.388Z,4.69
2018-12-18T02:08:51.068Z,4.69
2018-12-18T02:09:51.240Z,4.66
2018-12-18T02:10:51.180Z,4.67
2018-12-18T02:11:51.275Z,4.66
2018-12-18T02:12:51.006Z,4.64
2018-12-18T02:13:51.034Z,4.62
2018-12-18T02:14:50.984Z,4.62
2018-12-18T02:15:50.947Z,4.62
2018-12-18T02:16:51.197Z,4.61
2018-12-18T02:17:51.216Z,4.62
2018-12-18T02:18:51.262Z,4.59
2018-12-18T02:19:51.365Z,4.57
2018-12-18T02:20:51.236Z,4.57
2018-12-18T02:21:51.155Z,4.56
2018-12-18T02:22:51.239Z,4.52
2018-12-18T02:23:50.950Z,4.49
2018-12-18T02:24:51.436Z,4.46
2018-12-18T02:25:51.104Z,4.46
2018-12-18T02:26:50.979Z,4.45
2018-12-18T02:27:51.219Z,4.43
2018-12-18T02:28:51.141Z,4.4
2018-12-18T02:29:51.317Z,4.4
2018-12-18T02:30:51.138Z,4.4
2018-12-18T02:31:51.321Z,4.39
2018-12-18T02:32:50.995Z,4.38
2018-12-18T02:33:51.080Z,4.36
2018-12-18T02:34:51.044Z,4.31
2018-12-18T02:35:51.042Z,4.28
2018-12-18T02:36:51.188Z,4.26
2018-12-18T02:37:51.126Z,4.21
2018-12-18T02:38:51.178Z,4.21
2018-12-18T02:39:51.468Z,4.21
2018-12-18T02:40:50.987Z,4.21
2018-12-18T02:41:51.256Z,4.2
2018-12-18T02:42:51.297Z,4.2
2018-12-18T02:43:51.400Z,4.17
2018-12-18T02:44:50.954Z,4.19
2018-12-18T02:45:51.760Z,4.2
2018-12-18T02:46:51.051Z,4.16
2018-12-18T02:47:51.758Z,4.15
2018-12-18T02:48:51.146Z,4.17
2018-12-18T02:49:51.091Z,4.15
2018-12-18T02:50:51.282Z,4.16
2018-12-18T02:51:50.968Z,4.15
2018-12-18T02:52:51.114Z,4.14
2018-12-18T02:53:51.257Z,4.13
2018-12-18T02:54:50.903Z,4.11
2018-12-18T02:55:51.217Z,4.09
2018-12-18T02:56:50.916Z,4.09
2018-12-18T02:57:51.023Z,4.11
2018-12-18T02:58:50.927Z,4.09
2018-12-18T02:59:51.028Z,4.06
2018-12-18T03:00:50.947Z,4.04
2018-12-18T03:01:51.297Z,4.06
2018-12-18T03:02:50.974Z,4.04
2018-12-18T03:03:50.935Z,4.06
2018-12-18T03:04:51.117Z,4.02
2018-12-18T03:05:50.963Z,4
2018-12-18T03:06:50.921Z,3.97
2018-12-18T03:07:50.980Z,3.96
2018-12-18T03:08:50.975Z,3.95
2018-12-18T03:09:50.957Z,3.96
2018-12-18T03:10:50.949Z,3.95
2018-12-18T03:11:50.959Z,3.94
2018-12-18T03:12:51.082Z,3.9
2018-12-18T03:13:50.963Z,3.9
2018-12-18T03:14:50.923Z,3.9
2018-12-18T03:15:50.907Z,3.86
2018-12-18T03:16:51.041Z,3.88
2018-12-18T03:17:51.010Z,3.85
2018-12-18T03:18:50.971Z,3.83
2018-12-18T03:19:50.923Z,3.82
2018-12-18T03:20:50.924Z,3.81
2018-12-18T03:21:50.988Z,3.8
2018-12-18T03:22:50.944Z,3.78
2018-12-18T03:23:51.005Z,3.78
2018-12-18T03:24:50.927Z,3.78
2018-12-18T03:25:50.936Z,3.78
2018-12-18T03:26:51.281Z,3.78
2018-12-18T03:27:51.071Z,3.77
2018-12-18T03:28:51.233Z,3.79
2018-12-18T03:29:51.803Z,3.78
2018-12-18T03:30:51.259Z,3.79
2018-12-18T03:31:51.448Z,3.81
2018-12-18T03:32:50.970Z,3.81
2018-12-18T03:33:51.208Z,3.81
2018-12-18T03:34:51.023Z,3.85
2018-12-18T03:35:51.026Z,3.85
2018-12-18T03:36:51.200Z,3.83
2018-12-18T03:37:50.935Z,3.82
2018-12-18T03:38:51.218Z,3.83
2018-12-18T03:39:50.973Z,3.85
2018-12-18T03:40:50.896Z,3.85
2018-12-18T03:41:51.266Z,3.83
2018-12-18T03:42:51.266Z,3.83
2018-12-18T03:43:51.180Z,3.85
2018-12-18T03:44:51.077Z,3.84
2018-12-18T03:45:51.098Z,3.83
2018-12-18T03:46:51.115Z,3.83
2018-12-18T03:47:50.928Z,3.84
2018-12-18T03:48:50.850Z,3.87
2018-12-18T03:49:50.997Z,3.85
2018-12-18T03:50:51.282Z,3.85
2018-12-18T03:51:50.845Z,3.85
2018-12-18T03:52:51.083Z,3.86
2018-12-18T03:53:51.135Z,3.86
2018-12-18T03:54:50.870Z,3.84
2018-12-18T03:55:50.947Z,3.83
2018-12-18T03:56:51.056Z,3.84
2018-12-18T03:57:50.984Z,3.83
2018-12-18T03:58:51.114Z,3.82
2018-12-18T03:59:51.157Z,3.82
2018-12-18T04:00:51.670Z,3.82
2018-12-18T04:01:50.888Z,3.81
2018-12-18T04:02:51.101Z,3.8
2018-12-18T04:03:51.090Z,3.78
2018-12-18T04:04:51.013Z,3.79
2018-12-18T04:05:51.200Z,3.75
2018-12-18T04:06:51.204Z,3.75
2018-12-18T04:07:50.845Z,3.74
2018-12-18T04:08:50.835Z,3.75
2018-12-18T04:09:51.249Z,3.75
2018-12-18T04:10:51.209Z,3.74
2018-12-18T04:11:50.957Z,3.75
2018-12-18T04:12:50.914Z,3.75
2018-12-18T04:13:50.904Z,3.73
2018-12-18T04:14:50.899Z,3.72
2018-12-18T04:15:50.866Z,3.7
2018-12-18T04:16:50.874Z,3.72
2018-12-18T04:17:50.842Z,3.7
2018-12-18T04:18:50.803Z,3.68
2018-12-18T04:19:50.874Z,3.67
2018-12-18T04:20:51.182Z,3.67
2018-12-18T04:21:51.200Z,3.67
2018-12-18T04:22:51.027Z,3.64
2018-12-18T04:23:51.031Z,3.64
2018-12-18T04:24:50.832Z,3.62
2018-12-18T04:25:50.803Z,3.61
2018-12-18T04:26:50.896Z,3.58
2018-12-18T04:27:51.031Z,3.58
2018-12-18T04:28:51.040Z,3.57
2018-12-18T04:29:50.876Z,3.56
2018-12-18T04:30:50.849Z,3.54
2018-12-18T04:31:50.928Z,3.54
2018-12-18T04:32:50.820Z,3.51
2018-12-18T04:33:51.249Z,3.52
2018-12-18T04:34:50.965Z,3.49
2018-12-18T04:35:50.802Z,3.5
2018-12-18T04:36:51.272Z,3.48
2018-12-18T04:37:50.849Z,3.48
2018-12-18T04:38:50.990Z,3.48
2018-12-18T04:39:50.793Z,3.47
2018-12-18T04:40:51.041Z,3.45
2018-12-18T04:41:50.800Z,3.43
2018-12-18T04:42:50.853Z,3.41
2018-12-18T04:43:50.833Z,3.39
2018-12-18T04:44:50.804Z,3.41
2018-12-18T04:45:50.870Z,3.4
2018-12-18T04:46:50.826Z,3.38
2018-12-18T04:47:50.789Z,3.38
2018-12-18T04:48:50.937Z,3.4
2018-12-18T04:49:50.811Z,3.37
2018-12-18T04:50:50.927Z,3.36
2018-12-18T04:51:50.891Z,3.36
2018-12-18T04:52:50.889Z,3.34
2018-12-18T04:53:50.924Z,3.32
2018-12-18T04:54:50.789Z,3.33
2018-12-18T04:55:50.911Z,3.3
2018-12-18T04:56:50.964Z,3.3
2018-12-18T04:57:50.889Z,3.28
2018-12-18T04:58:50.906Z,3.28
2018-12-18T04:59:50.839Z,3.28
2018-12-18T05:00:50.757Z,3.28
2018-12-18T05:01:51.122Z,3.25
2018-12-18T05:02:50.877Z,3.24
2018-12-18T05:03:50.903Z,3.23
2018-12-18T05:04:51.092Z,3.23
2018-12-18T05:05:51.044Z,3.21
2018-12-18T05:06:50.921Z,3.19
2018-12-18T05:07:51.066Z,3.19
2018-12-18T05:08:50.938Z,3.2
2018-12-18T05:09:50.754Z,3.17
2018-12-18T05:10:50.773Z,3.13
2018-12-18T05:11:50.965Z,3.08
2018-12-18T05:12:51.200Z,3.01
2018-12-18T05:13:50.879Z,2.98
2018-12-18T05:14:50.976Z,2.97
2018-12-18T05:15:50.725Z,2.97
2018-12-18T05:16:50.965Z,2.97
2018-12-18T05:17:50.761Z,2.99
2018-12-18T05:18:50.757Z,2.97
2018-12-18T05:19:51.110Z,2.96
2018-12-18T05:20:50.935Z,2.95
2018-12-18T05:21:51.550Z,2.96
2018-12-18T05:22:50.861Z,2.95
2018-12-18T05:23:50.841Z,2.96
2018-12-18T05:24:50.911Z,2.95
2018-12-18T05:25:51.152Z,2.94
2018-12-18T05:26:50.727Z,2.92
2018-12-18T05:27:50.729Z,2.89
2018-12-18T05:28:50.977Z,2.88
2018-12-18T05:29:50.842Z,2.86
2018-12-18T05:30:50.521Z,2.85
2018-12-18T05:31:50.862Z,2.85
2018-12-18T05:32:50.847Z,2.86
2018-12-18T05:33:50.894Z,2.83
2018-12-18T05:35:50.718Z,2.82
2018-12-18T05:36:51.586Z,2.77
2018-12-18T05:37:50.896Z,2.77
2018-12-18T05:38:50.999Z,2.77
2018-12-18T05:39:51.084Z,2.76
2018-12-18T05:40:51.146Z,2.76
2018-12-18T05:41:50.880Z,2.76
2018-12-18T05:42:50.907Z,2.78
2018-12-18T05:43:50.865Z,2.77
2018-12-18T05:44:50.834Z,2.76
2018-12-18T05:45:50.887Z,2.76
2018-12-18T05:46:50.732Z,2.76
2018-12-18T05:47:50.833Z,2.75
2018-12-18T05:48:51.525Z,2.75
2018-12-18T05:49:50.964Z,2.75
2018-12-18T05:50:50.821Z,2.75
2018-12-18T05:51:50.887Z,2.72
2018-12-18T05:52:50.828Z,2.73
2018-12-18T05:53:50.799Z,2.74
2018-12-18T05:54:50.771Z,2.74
2018-12-18T05:55:50.846Z,2.7
2018-12-18T05:56:50.752Z,2.71
2018-12-18T05:57:50.673Z,2.74
2018-12-18T05:58:51.497Z,2.75
2018-12-18T05:59:51.122Z,2.74
2018-12-18T06:00:50.694Z,2.73
2018-12-18T06:01:51.240Z,2.76
2018-12-18T06:02:50.730Z,2.77
2018-12-18T06:03:50.959Z,2.8
2018-12-18T06:04:50.726Z,2.79
2018-12-18T06:05:51.256Z,2.8
2018-12-18T06:06:50.883Z,2.8
2018-12-18T06:07:50.706Z,2.81
2018-12-18T06:08:50.678Z,2.81
2018-12-18T06:09:50.858Z,2.82
2018-12-18T06:10:50.809Z,2.82
2018-12-18T06:11:50.922Z,2.81
2018-12-18T06:12:51.049Z,2.79
2018-12-18T06:13:50.730Z,2.77
2018-12-18T06:14:50.774Z,2.75
2018-12-18T06:15:50.641Z,2.75
2018-12-18T06:16:50.837Z,2.75
2018-12-18T06:17:50.639Z,2.74
2018-12-18T06:18:50.630Z,2.72
2018-12-18T06:19:50.779Z,2.73
2018-12-18T06:20:51.044Z,2.7
2018-12-18T06:21:50.648Z,2.7
2018-12-18T06:22:50.625Z,2.68
2018-12-18T06:23:51.350Z,2.7
2018-12-18T06:24:50.617Z,2.7
2018-12-18T06:25:50.627Z,2.7
2018-12-18T06:26:50.602Z,2.7
2018-12-18T06:27:50.717Z,2.69
2018-12-18T06:28:50.719Z,2.68
2018-12-18T06:29:50.604Z,2.64
2018-12-18T06:30:50.748Z,2.63
2018-12-18T06:31:50.661Z,2.63
2018-12-18T06:32:50.843Z,2.62
2018-12-18T06:33:50.642Z,2.59
2018-12-18T06:34:50.646Z,2.61
2018-12-18T06:35:50.964Z,2.63
2018-12-18T06:36:50.885Z,2.64
2018-12-18T06:37:50.783Z,2.66
2018-12-18T06:38:50.898Z,2.67
2018-12-18T06:39:51.454Z,2.7
2018-12-18T06:40:50.773Z,2.73
2018-12-18T06:41:50.663Z,2.75
2018-12-18T06:42:50.615Z,2.77
2018-12-18T06:43:50.681Z,2.78
2018-12-18T06:44:50.618Z,2.81
2018-12-18T06:45:50.757Z,2.83
2018-12-18T06:46:50.716Z,2.85
2018-12-18T06:47:50.654Z,2.87
2018-12-18T06:48:50.984Z,2.87
2018-12-18T06:49:50.702Z,2.86
2018-12-18T06:50:50.744Z,2.86
2018-12-18T06:51:51.450Z,2.87
2018-12-18T06:52:50.684Z,2.88
2018-12-18T06:53:50.660Z,2.91
2018-12-18T06:54:51.043Z,2.92
2018-12-18T06:55:50.588Z,2.94
2018-12-18T06:56:50.733Z,2.97
2018-12-18T06:57:50.761Z,2.98
2018-12-18T06:58:50.596Z,2.98
2018-12-18T06:59:50.717Z,2.99
2018-12-18T07:00:50.879Z,3
2018-12-18T07:01:50.646Z,3
2018-12-18T07:02:50.964Z,3.04
2018-12-18T07:03:50.683Z,3.05
2018-12-18T07:04:50.829Z,3.06
2018-12-18T07:05:50.914Z,3.05
2018-12-18T07:06:50.929Z,3.09
2018-12-18T07:07:57.938Z,3.09
2018-12-18T07:08:50.584Z,3.1
2018-12-18T07:09:50.822Z,3.12
2018-12-18T07:10:51.333Z,3.11
2018-12-18T07:11:50.925Z,3.12
2018-12-18T07:12:50.589Z,3.13
2018-12-18T07:13:50.834Z,3.15
2018-12-18T07:14:50.693Z,3.14
2018-12-18T07:15:50.595Z,3.14
2018-12-18T07:16:50.861Z,3.1
2018-12-18T07:17:50.778Z,3.09
2018-12-18T07:18:50.837Z,3.06
2018-12-18T07:19:51.029Z,3.07
2018-12-18T07:20:50.616Z,3.09
2018-12-18T07:21:50.877Z,3.08
2018-12-18T07:22:50.594Z,3.1
2018-12-18T07:23:50.948Z,3.11
2018-12-18T07:24:50.557Z,3.15
2018-12-18T07:25:50.563Z,3.13
2018-12-18T07:26:50.793Z,3.14
2018-12-18T07:27:50.674Z,3.11
2018-12-18T07:28:50.729Z,3.09
2018-12-18T07:29:50.672Z,3.1
2018-12-18T07:30:50.605Z,3.11
2018-12-18T07:31:50.836Z,3.14
2018-12-18T07:32:50.672Z,3.14
2018-12-18T07:33:50.579Z,3.15
2018-12-18T07:34:50.823Z,3.15
2018-12-18T07:35:50.762Z,3.16
2018-12-18T07:36:51.641Z,3.16
2018-12-18T07:37:50.705Z,3.16
2018-12-18T07:38:50.578Z,3.18
2018-12-18T07:39:50.619Z,3.18
2018-12-18T07:40:50.747Z,3.21
2018-12-18T07:41:50.719Z,3.21
2018-12-18T07:42:50.503Z,3.21
2018-12-18T07:43:50.582Z,3.23
2018-12-18T07:44:50.743Z,3.24
2018-12-18T07:45:50.580Z,3.23
2018-12-18T07:46:50.775Z,3.23
2018-12-18T07:47:50.698Z,3.25
2018-12-18T07:48:50.580Z,3.24
2018-12-18T07:49:50.576Z,3.23
2018-12-18T07:50:50.547Z,3.23
2018-12-18T07:51:50.651Z,3.23
2018-12-18T07:52:50.527Z,3.19
2018-12-18T07:53:50.653Z,3.18
2018-12-18T07:54:51.021Z,3.18
2018-12-18T07:55:50.681Z,3.19
2018-12-18T07:56:50.735Z,3.16
2018-12-18T07:57:50.524Z,3.15
2018-12-18T07:58:50.470Z,3.15
2018-12-18T07:59:50.508Z,3.17
2018-12-18T08:00:50.639Z,3.17
2018-12-18T08:01:50.502Z,3.17
2018-12-18T08:02:50.611Z,3.15
2018-12-18T08:03:50.689Z,3.17
2018-12-18T08:04:50.521Z,3.17
2018-12-18T08:05:50.500Z,3.17
2018-12-18T08:06:50.560Z,3.18
2018-12-18T08:07:50.508Z,3.18
2018-12-18T08:08:50.538Z,3.18
2018-12-18T08:09:50.631Z,3.21
2018-12-18T08:10:50.692Z,3.21
2018-12-18T08:11:50.538Z,3.22
2018-12-18T08:12:50.596Z,3.22
2018-12-18T08:13:50.891Z,3.23
2018-12-18T08:14:50.590Z,3.26
2018-12-18T08:15:51.350Z,3.24
2018-12-18T08:16:50.576Z,3.28
2018-12-18T08:17:50.687Z,3.26
2018-12-18T08:18:50.517Z,3.29
2018-12-18T08:19:50.628Z,3.29
2018-12-18T08:20:50.630Z,3.28
2018-12-18T08:21:50.691Z,3.29
2018-12-18T08:22:50.822Z,3.34
2018-12-18T08:23:50.744Z,3.34
2018-12-18T08:24:50.795Z,3.34
2018-12-18T08:25:50.494Z,3.36
2018-12-18T08:26:50.518Z,3.38
2018-12-18T08:27:50.441Z,3.39
2018-12-18T08:28:50.855Z,3.41
2018-12-18T08:29:50.632Z,3.4
2018-12-18T08:30:50.559Z,3.43
2018-12-18T08:31:50.699Z,3.43
2018-12-18T08:32:50.566Z,3.47
2018-12-18T08:33:50.720Z,3.48
2018-12-18T08:34:50.449Z,3.49
2018-12-18T08:35:50.510Z,3.53
2018-12-18T08:36:50.434Z,3.53
2018-12-18T08:37:50.479Z,3.55
2018-12-18T08:38:51.264Z,3.57
2018-12-18T08:39:50.823Z,3.58
2018-12-18T08:40:50.545Z,3.6
2018-12-18T08:41:50.660Z,3.63
2018-12-18T08:42:50.717Z,3.6
2018-12-18T08:43:50.587Z,3.62
2018-12-18T08:44:50.540Z,3.65
2018-12-18T08:45:50.515Z,3.65
2018-12-18T08:46:50.740Z,3.66
2018-12-18T08:47:50.578Z,3.69
2018-12-18T08:48:50.452Z,3.67
2018-12-18T08:49:50.528Z,3.7
2018-12-18T08:50:51.284Z,3.71
2018-12-18T08:51:50.664Z,3.73
2018-12-18T08:52:50.477Z,3.74
2018-12-18T08:53:51.269Z,3.75
2018-12-18T08:54:50.441Z,3.73
2018-12-18T08:55:50.453Z,3.73
2018-12-18T08:56:50.473Z,3.74
2018-12-18T08:57:50.632Z,3.74
2018-12-18T08:58:50.639Z,3.76
2018-12-18T08:59:51.264Z,3.76
2018-12-18T09:00:50.532Z,3.8
2018-12-18T09:01:50.419Z,3.79
2018-12-18T09:02:50.615Z,3.81
2018-12-18T09:03:50.655Z,3.81
2018-12-18T09:04:50.437Z,3.84
2018-12-18T09:05:50.453Z,3.83
2018-12-18T09:06:50.473Z,3.85
2018-12-18T09:07:50.741Z,3.86
2018-12-18T09:08:50.698Z,3.85
2018-12-18T09:09:50.555Z,3.84
2018-12-18T09:10:50.368Z,3.87
2018-12-18T09:11:50.749Z,3.88
2018-12-18T09:12:50.667Z,3.88
2018-12-18T09:13:50.475Z,3.88
2018-12-18T09:14:50.391Z,3.89
2018-12-18T09:15:50.401Z,3.89
2018-12-18T09:16:50.612Z,3.9
2018-12-18T09:17:50.575Z,3.92
2018-12-18T09:18:50.379Z,3.93
2018-12-18T09:19:50.445Z,3.94
2018-12-18T09:20:50.392Z,3.95
2018-12-18T09:21:51.184Z,3.95
2018-12-18T09:22:50.594Z,3.95
2018-12-18T09:23:51.254Z,3.96
2018-12-18T09:24:50.985Z,3.98
2018-12-18T09:25:50.422Z,4
2018-12-18T09:26:50.844Z,4.02
2018-12-18T09:27:50.686Z,4.02
2018-12-18T09:28:50.439Z,4.01
2018-12-18T09:29:50.381Z,4.05
2018-12-18T09:30:50.379Z,4.04
2018-12-18T09:31:50.439Z,4.07
2018-12-18T09:32:50.393Z,4.07
2018-12-18T09:33:50.605Z,4.12
2018-12-18T09:34:50.495Z,4.14
2018-12-18T09:35:50.430Z,4.13
2018-12-18T09:36:50.367Z,4.15
2018-12-18T09:37:50.753Z,4.15
2018-12-18T09:38:50.482Z,4.18
2018-12-18T09:39:50.644Z,4.18
2018-12-18T09:40:50.469Z,4.18
2018-12-18T09:41:50.401Z,4.19
2018-12-18T09:42:50.379Z,4.21
2018-12-18T09:43:50.722Z,4.2
2018-12-18T09:44:50.386Z,4.2
2018-12-18T09:45:50.484Z,4.21
2018-12-18T09:46:51.358Z,4.2
2018-12-18T09:47:50.328Z,4.2
2018-12-18T09:48:50.390Z,4.23
2018-12-18T09:49:50.379Z,4.21
2018-12-18T09:50:50.463Z,4.25
2018-12-18T09:51:50.590Z,4.26
2018-12-18T09:52:50.448Z,4.25
2018-12-18T09:53:50.403Z,4.27
2018-12-18T09:54:50.427Z,4.31
2018-12-18T09:55:50.430Z,4.3
2018-12-18T09:56:50.437Z,4.32
2018-12-18T09:57:50.360Z,4.33
2018-12-18T09:58:50.442Z,4.33
2018-12-18T09:59:50.495Z,4.34
2018-12-18T10:00:50.637Z,4.35
2018-12-18T10:01:51.037Z,4.37
2018-12-18T10:02:50.909Z,4.39
2018-12-18T10:03:50.338Z,4.43
2018-12-18T10:04:50.469Z,4.41
2018-12-18T10:05:56.747Z,4.43
2018-12-18T10:06:50.687Z,4.45
2018-12-18T10:07:50.464Z,4.46
2018-12-18T10:08:50.631Z,4.45
2018-12-18T10:09:50.710Z,4.5
2018-12-18T10:10:50.436Z,4.51
2018-12-18T10:11:50.479Z,4.52
2018-12-18T10:12:50.338Z,4.54
2018-12-18T10:13:50.446Z,4.55
2018-12-18T10:14:50.635Z,4.57
2018-12-18T10:15:50.525Z,4.59
2018-12-18T10:16:50.389Z,4.63
2018-12-18T10:17:50.710Z,4.65
2018-12-18T10:18:50.878Z,4.66
2018-12-18T10:19:50.350Z,4.7
2018-12-18T10:20:50.358Z,4.72
2018-12-18T10:21:50.551Z,4.73
2018-12-18T10:22:50.444Z,4.78
2018-12-18T10:23:50.352Z,4.78
2018-12-18T10:24:50.405Z,4.8
2018-12-18T10:25:51.120Z,4.83
2018-12-18T10:26:50.602Z,4.83
2018-12-18T10:27:50.461Z,4.84
2018-12-18T10:28:50.535Z,4.84
2018-12-18T10:29:50.408Z,4.87
2018-12-18T10:30:50.358Z,4.87
2018-12-18T10:31:50.450Z,4.9
2018-12-18T10:32:50.394Z,4.91
2018-12-18T10:33:50.418Z,4.94
2018-12-18T10:34:50.309Z,4.97
2018-12-18T10:35:51.158Z,4.98
2018-12-18T10:36:50.303Z,5.02
2018-12-18T10:37:50.333Z,5.05
2018-12-18T10:38:50.368Z,5.07
2018-12-18T10:39:50.697Z,5.1
2018-12-18T10:40:50.521Z,5.13
2018-12-18T10:41:50.319Z,5.16
2018-12-18T10:42:50.329Z,5.19
2018-12-18T10:43:50.690Z,5.25
2018-12-18T10:44:50.320Z,5.28
2018-12-18T10:45:50.388Z,5.32
2018-12-18T10:46:50.337Z,5.35
2018-12-18T10:47:50.399Z,5.42
2018-12-18T10:48:50.780Z,5.47
2018-12-18T10:49:51.116Z,5.49
2018-12-18T10:50:50.538Z,5.54
2018-12-18T10:51:50.387Z,5.58
2018-12-18T10:52:51.137Z,5.63
2018-12-18T10:53:50.374Z,5.65
2018-12-18T10:54:50.445Z,5.69
2018-12-18T10:55:50.294Z,5.71
2018-12-18T10:56:50.268Z,5.79
2018-12-18T10:57:50.318Z,5.8
2018-12-18T10:58:50.857Z,5.85
2018-12-18T10:59:50.624Z,5.9
2018-12-18T11:00:50.320Z,5.96
2018-12-18T11:01:51.120Z,6
2018-12-18T11:02:50.621Z,6.01
2018-12-18T11:03:50.557Z,6.06
2018-12-18T11:04:50.273Z,6.06
2018-12-18T11:05:50.398Z,6.09
2018-12-18T11:06:50.383Z,6.1
2018-12-18T11:07:50.357Z,6.11
2018-12-18T11:08:50.349Z,6.11
2018-12-18T11:09:50.252Z,6.13
2018-12-18T11:10:50.399Z,6.19
2018-12-18T11:11:50.297Z,6.23
2018-12-18T11:12:50.290Z,6.25
2018-12-18T11:13:50.245Z,6.29
2018-12-18T11:14:50.320Z,6.25
2018-12-18T11:15:50.307Z,6.28
2018-12-18T11:16:50.376Z,6.29
2018-12-18T11:17:50.297Z,6.33
2018-12-18T11:18:50.315Z,6.36
2018-12-18T11:19:50.270Z,6.38
2018-12-18T11:20:50.266Z,6.42
2018-12-18T11:21:50.258Z,6.44
2018-12-18T11:22:50.260Z,6.49
2018-12-18T11:23:50.457Z,6.54
2018-12-18T11:24:50.298Z,6.59
2018-12-18T11:25:50.537Z,6.62
2018-12-18T11:26:50.500Z,6.64
2018-12-18T11:27:50.382Z,6.67
2018-12-18T11:28:50.665Z,6.72
2018-12-18T11:29:50.482Z,6.75
2018-12-18T11:30:50.353Z,6.76
2018-12-18T11:31:50.478Z,6.81
2018-12-18T11:32:50.759Z,6.79
2018-12-18T11:33:50.548Z,6.82
2018-12-18T11:34:50.331Z,6.85
2018-12-18T11:35:50.392Z,6.84
2018-12-18T11:36:50.447Z,6.89
2018-12-18T11:37:51.058Z,6.91
2018-12-18T11:38:50.582Z,6.93
2018-12-18T11:39:50.368Z,6.94
2018-12-18T11:40:50.716Z,6.97
2018-12-18T11:41:50.692Z,6.99
2018-12-18T11:42:50.314Z,7.01
2018-12-18T11:43:50.274Z,7
2018-12-18T11:44:50.267Z,6.96
2018-12-18T11:45:50.275Z,7.01
2018-12-18T11:46:50.486Z,7.05
2018-12-18T11:47:50.628Z,7.06
2018-12-18T11:48:50.811Z,7.05
2018-12-18T11:49:50.336Z,7.02
2018-12-18T11:50:50.273Z,7.04
2018-12-18T11:51:50.456Z,7.06
2018-12-18T11:52:50.584Z,7.12
2018-12-18T11:53:50.318Z,7.15
2018-12-18T11:54:53.572Z,7.12
2018-12-18T11:55:50.211Z,7.14
2018-12-18T11:56:50.274Z,7.17
2018-12-18T11:57:50.603Z,7.16
2018-12-18T11:58:50.500Z,7.15
2018-12-18T11:59:50.268Z,7.13
2018-12-18T12:00:50.321Z,7.17
2018-12-18T12:01:50.187Z,7.19
2018-12-18T12:02:50.279Z,7.18
2018-12-18T12:03:50.443Z,7.22
2018-12-18T12:04:50.207Z,7.23
2018-12-18T12:05:50.355Z,7.21
2018-12-18T12:06:50.450Z,7.16
2018-12-18T12:07:50.223Z,7.13
2018-12-18T12:08:50.579Z,7.11
2018-12-18T12:09:50.342Z,7.07
2018-12-18T12:10:50.288Z,7.04
2018-12-18T12:11:50.279Z,7.04
2018-12-18T12:12:50.528Z,7
2018-12-18T12:13:50.270Z,7
2018-12-18T12:14:50.244Z,7
2018-12-18T12:15:50.266Z,6.96
2018-12-18T12:16:50.272Z,6.99
2018-12-18T12:17:50.271Z,6.95
2018-12-18T12:18:50.615Z,6.97
2018-12-18T12:19:50.744Z,6.94
2018-12-18T12:20:50.533Z,6.92
2018-12-18T12:21:50.258Z,6.92
2018-12-18T12:22:50.545Z,6.89
2018-12-18T12:23:50.313Z,6.92
2018-12-18T12:24:50.451Z,6.89
2018-12-18T12:25:50.336Z,6.89
2018-12-18T12:26:50.234Z,6.89
2018-12-18T12:27:50.359Z,6.89
2018-12-18T12:28:50.164Z,6.88
2018-12-18T12:29:50.865Z,6.89
2018-12-18T12:30:50.369Z,6.89
2018-12-18T12:31:50.214Z,6.88
2018-12-18T12:32:50.687Z,6.88
2018-12-18T12:33:50.517Z,6.86
2018-12-18T12:34:50.319Z,6.85
2018-12-18T12:35:50.944Z,6.84
2018-12-18T12:36:50.583Z,6.85
2018-12-18T12:37:50.402Z,6.83
2018-12-18T12:38:50.374Z,6.83
2018-12-18T12:39:50.225Z,6.83
2018-12-18T12:40:50.267Z,6.83
2018-12-18T12:41:50.363Z,6.83
2018-12-18T12:42:50.400Z,6.82
2018-12-18T12:43:50.146Z,6.83
2018-12-18T12:44:50.701Z,6.83
2018-12-18T12:45:50.419Z,6.83
2018-12-18T12:46:50.378Z,6.83
2018-12-18T12:47:50.484Z,6.81
2018-12-18T12:48:50.171Z,6.79
2018-12-18T12:49:50.507Z,6.81
2018-12-18T12:50:50.339Z,6.83
2018-12-18T12:51:50.174Z,6.83
2018-12-18T12:52:50.488Z,6.85
2018-12-18T12:53:50.291Z,6.88
2018-12-18T12:54:50.363Z,6.91
2018-12-18T12:55:50.371Z,6.95
2018-12-18T12:56:50.343Z,6.95
2018-12-18T12:57:50.177Z,6.97
2018-12-18T12:58:50.184Z,7.02
2018-12-18T12:59:50.379Z,7.03
2018-12-18T13:00:50.165Z,7.05
2018-12-18T13:01:50.207Z,7.06
2018-12-18T13:02:50.204Z,7.09
2018-12-18T13:03:50.394Z,7.13
2018-12-18T13:04:50.280Z,7.17
2018-12-18T13:05:50.224Z,7.18
2018-12-18T13:06:50.162Z,7.18
2018-12-18T13:07:50.471Z,7.2
2018-12-18T13:08:50.153Z,7.23
2018-12-18T13:09:50.150Z,7.25
2018-12-18T13:10:50.502Z,7.28
2018-12-18T13:11:50.313Z,7.29
2018-12-18T13:12:50.234Z,7.28
2018-12-18T13:13:50.392Z,7.3
2018-12-18T13:14:50.463Z,7.3
2018-12-18T13:15:50.964Z,7.33
2018-12-18T13:16:50.389Z,7.34
2018-12-18T13:17:50.190Z,7.35
2018-12-18T13:18:50.181Z,7.35
2018-12-18T13:19:50.155Z,7.33
2018-12-18T13:20:50.201Z,7.36
2018-12-18T13:21:50.170Z,7.36
2018-12-18T13:22:50.122Z,7.37